Time;durP1;ratioP1;P1;durP2;ratioP2;P2;SDS_P1;SDS_P2;PMS_P1;PMS_P2;Temp;Humidity;BMP_temperature;BMP_pressure;BME280_temperature;BME280_humidity;BME280_pressure;Samples;Min_cycle;Max_cycle;Signal;HPM_P1;HPM_P2
2022/12/04 00:00:08;;;;;;;74.63;41.83;;;1.90;99.90;;;;;;5013434;28;20744;-59
2022/12/04 00:02:34;;;;;;;71.00;40.20;;;1.90;99.90;;;;;;5015194;28;20251;-59
2022/12/04 00:05:00;;;;;;;70.47;42.33;;;1.90;99.90;;;;;;5015614;28;20594;-60
2022/12/04 00:07:25;;;;;;;68.03;38.27;;;1.90;99.90;;;;;;5015176;28;20199;-61
2022/12/04 00:09:51;;;;;;;69.53;42.03;;;1.80;99.90;;;;;;5013604;28;20207;-61
2022/12/04 00:12:16;;;;;;;71.00;38.83;;;1.90;99.90;;;;;;5012862;28;20210;-60
2022/12/04 00:14:42;;;;;;;73.97;39.00;;;2.00;99.90;;;;;;5015253;28;20284;-61
2022/12/04 00:17:07;;;;;;;68.83;38.67;;;2.00;99.90;;;;;;5015434;28;20202;-60
2022/12/04 00:19:32;;;;;;;62.53;36.77;;;2.00;99.90;;;;;;5015174;28;20217;-61
2022/12/04 00:21:58;;;;;;;71.70;37.73;;;2.00;99.90;;;;;;5018056;28;20205;-61
2022/12/04 00:24:23;;;;;;;71.30;38.10;;;1.90;99.90;;;;;;5008152;28;20712;-59
2022/12/04 00:26:49;;;;;;;66.90;40.97;;;1.90;99.90;;;;;;5014189;28;20216;-60
2022/12/04 00:29:14;;;;;;;69.87;40.43;;;1.90;99.90;;;;;;5015696;28;20692;-64
2022/12/04 00:31:40;;;;;;;59.40;35.20;;;1.90;99.90;;;;;;5015707;28;20871;-59
2022/12/04 00:34:05;;;;;;;74.17;38.67;;;1.90;99.90;;;;;;5012500;28;20812;-59
2022/12/04 00:36:31;;;;;;;64.80;38.43;;;1.90;99.90;;;;;;5006374;28;20210;-60
2022/12/04 00:38:59;;;;;;;69.93;37.47;;;1.90;99.90;;;;;;5009848;28;20216;-60
2022/12/04 00:41:27;;;;;;;68.13;39.07;;;1.90;99.90;;;;;;5013471;28;20284;-60
2022/12/04 00:43:53;;;;;;;68.50;37.60;;;1.90;99.90;;;;;;5015671;28;20205;-59
2022/12/04 00:46:18;;;;;;;63.57;36.63;;;1.80;99.90;;;;;;5015742;28;20206;-59
2022/12/04 00:48:44;;;;;;;70.20;39.77;;;1.90;99.90;;;;;;5014580;28;20212;-59
2022/12/04 00:51:16;;;;;;;63.70;36.70;;;1.90;99.90;;;;;;5015714;28;20232;-59
2022/12/04 00:53:41;;;;;;;65.73;35.73;;;1.90;99.90;;;;;;5015473;28;20292;-59
2022/12/04 00:56:11;;;;;;;76.43;39.20;;;1.90;99.90;;;;;;5015474;28;20294;-59
2022/12/04 00:58:37;;;;;;;67.33;38.17;;;1.90;99.90;;;;;;5014414;28;20546;-61
2022/12/04 01:01:09;;;;;;;71.43;40.23;;;1.90;99.90;;;;;;5016640;28;20195;-60
2022/12/04 01:03:35;;;;;;;67.40;37.93;;;1.90;99.90;;;;;;5015577;28;20254;-60
2022/12/04 01:06:01;;;;;;;72.43;39.10;;;1.90;99.90;;;;;;5015427;28;20623;-59
2022/12/04 01:08:27;;;;;;;70.10;38.07;;;1.90;99.90;;;;;;5016594;28;20289;-60
2022/12/04 01:10:53;;;;;;;73.30;39.53;;;1.90;99.90;;;;;;5015067;28;20288;-60
2022/12/04 01:13:18;;;;;;;65.27;36.57;;;1.90;99.90;;;;;;5013730;28;20632;-60
2022/12/04 01:15:46;;;;;;;65.17;37.50;;;1.90;99.90;;;;;;5015519;28;20276;-59
2022/12/04 01:18:12;;;;;;;71.23;39.97;;;1.90;99.90;;;;;;5015617;28;20230;-59
2022/12/04 01:20:37;;;;;;;73.53;39.73;;;1.90;99.90;;;;;;5015469;28;20571;-59
2022/12/04 01:23:03;;;;;;;74.90;38.77;;;1.90;99.90;;;;;;5015631;28;20194;-60
2022/12/04 01:25:29;;;;;;;70.50;40.07;;;1.90;99.90;;;;;;5012425;28;20206;-59
2022/12/04 01:27:54;;;;;;;70.33;41.13;;;1.90;99.90;;;;;;5013971;28;20574;-59
2022/12/04 01:30:20;;;;;;;63.47;39.23;;;2.00;99.90;;;;;;5016511;28;20206;-59
2022/12/04 01:32:45;;;;;;;77.50;42.47;;;1.90;99.90;;;;;;5013655;28;20234;-60
2022/12/04 01:35:11;;;;;;;69.70;39.90;;;1.90;99.90;;;;;;5019184;28;20263;-60
2022/12/04 01:37:36;;;;;;;77.73;39.77;;;1.80;99.90;;;;;;5018766;28;20264;-60
2022/12/04 01:40:03;;;;;;;67.40;37.17;;;1.80;99.90;;;;;;5016942;28;20565;-60
2022/12/04 01:42:28;;;;;;;70.93;40.93;;;1.80;99.90;;;;;;5018716;28;20256;-60
2022/12/04 01:45:32;;;;;;;80.87;39.07;;;1.80;99.90;;;;;;5018899;28;20561;-60
2022/12/04 01:48:16;;;;;;;74.60;40.50;;;1.80;99.90;;;;;;5014072;28;20539;-60
2022/12/04 01:50:42;;;;;;;80.17;42.77;;;1.80;99.90;;;;;;5018540;28;20815;-60
2022/12/04 01:53:08;;;;;;;82.43;42.87;;;1.80;99.90;;;;;;5018862;28;20223;-60
2022/12/04 01:55:34;;;;;;;75.53;41.97;;;1.80;99.90;;;;;;5018434;28;20238;-60
2022/12/04 01:58:01;;;;;;;77.03;41.27;;;1.80;99.90;;;;;;5016559;28;20230;-60
2022/12/04 02:00:27;;;;;;;78.13;41.80;;;1.80;99.90;;;;;;5018703;28;20481;-59
2022/12/04 02:02:53;;;;;;;80.07;42.03;;;1.80;99.90;;;;;;5018638;28;20261;-59
2022/12/04 02:05:20;;;;;;;80.37;40.57;;;1.90;99.90;;;;;;5018866;28;20946;-59
2022/12/04 02:07:49;;;;;;;72.33;39.83;;;1.80;99.90;;;;;;5018337;28;20690;-60
2022/12/04 02:10:16;;;;;;;82.30;42.70;;;1.80;99.90;;;;;;5016538;28;20605;-60
2022/12/04 02:12:59;;;;;;;79.40;40.37;;;1.90;99.90;;;;;;5017903;28;20231;-60
2022/12/04 02:15:52;;;;;;;83.80;43.67;;;1.80;99.90;;;;;;5017232;28;20253;-61
2022/12/04 02:18:19;;;;;;;79.93;42.47;;;1.90;99.90;;;;;;5018419;28;20757;-59
2022/12/04 02:21:03;;;;;;;78.80;42.87;;;1.90;99.90;;;;;;5017900;28;20210;-61
2022/12/04 02:23:53;;;;;;;80.47;42.47;;;1.90;99.90;;;;;;5018388;28;20185;-60
2022/12/04 02:26:48;;;;;;;75.73;40.97;;;1.90;99.90;;;;;;5015848;28;20228;-61
2022/12/04 02:29:38;;;;;;;73.20;42.30;;;1.90;99.90;;;;;;5019248;28;20291;-62
2022/12/04 02:32:28;;;;;;;75.73;41.97;;;1.80;99.90;;;;;;5017848;28;21037;-62
2022/12/04 02:35:05;;;;;;;73.70;40.87;;;1.90;99.90;;;;;;5018099;28;20502;-61
2022/12/04 02:37:44;;;;;;;72.97;42.83;;;1.90;99.90;;;;;;5015917;28;20245;-61
2022/12/04 02:40:24;;;;;;;83.20;41.67;;;1.90;99.90;;;;;;5018026;28;20685;-61
2022/12/04 02:43:00;;;;;;;80.60;43.83;;;1.90;99.90;;;;;;5016462;28;20565;-61
2022/12/04 02:45:30;;;;;;;83.63;42.07;;;1.90;99.90;;;;;;5018472;28;20263;-61
2022/12/04 02:47:59;;;;;;;79.17;42.73;;;1.90;99.90;;;;;;5018472;28;20729;-62
2022/12/04 02:50:26;;;;;;;81.50;42.67;;;1.90;99.90;;;;;;5006854;28;20201;-62
2022/12/04 02:53:02;;;;;;;87.03;44.13;;;1.90;99.90;;;;;;5017544;28;20206;-62
2022/12/04 02:55:36;;;;;;;91.03;42.67;;;1.90;99.90;;;;;;5016593;28;20291;-62
2022/12/04 02:58:08;;;;;;;77.97;42.93;;;1.90;99.90;;;;;;5010190;28;20712;-62
2022/12/04 03:00:35;;;;;;;79.57;44.07;;;1.80;99.90;;;;;;5006627;28;20206;-62
2022/12/04 03:03:07;;;;;;;81.83;43.90;;;1.70;99.90;;;;;;5006589;28;20679;-62
2022/12/04 03:05:53;;;;;;;75.60;42.90;;;1.80;99.90;;;;;;5008805;28;20200;-62
2022/12/04 03:08:25;;;;;;;81.27;41.33;;;1.70;99.90;;;;;;5001451;28;20220;-62
2022/12/04 03:10:54;;;;;;;88.87;45.53;;;1.70;99.90;;;;;;5006186;28;20210;-62
2022/12/04 03:13:53;;;;;;;92.97;45.57;;;1.70;99.90;;;;;;5004967;28;20685;-62
2022/12/04 03:16:28;;;;;;;87.63;43.73;;;1.70;99.90;;;;;;5004621;28;20199;-62
2022/12/04 03:19:09;;;;;;;79.30;42.67;;;1.70;99.90;;;;;;5004859;28;20222;-62
2022/12/04 03:21:40;;;;;;;89.90;45.93;;;1.70;99.90;;;;;;5004560;28;20700;-61
2022/12/04 03:24:14;;;;;;;84.67;42.80;;;1.70;99.90;;;;;;5005150;28;20203;-61
2022/12/04 03:26:46;;;;;;;81.03;42.90;;;1.70;99.90;;;;;;5004834;28;20183;-62
2022/12/04 03:29:20;;;;;;;82.27;41.77;;;1.70;99.90;;;;;;5004798;28;20194;-62
2022/12/04 03:31:56;;;;;;;82.77;43.03;;;1.70;99.90;;;;;;5006418;28;20188;-61
2022/12/04 03:34:31;;;;;;;83.17;41.97;;;1.70;99.90;;;;;;5005389;28;20301;-62
2022/12/04 03:37:04;;;;;;;83.07;42.87;;;1.70;99.90;;;;;;5005098;28;20192;-61
2022/12/04 03:39:41;;;;;;;89.70;42.57;;;1.70;99.90;;;;;;5002471;28;20238;-61
2022/12/04 03:42:22;;;;;;;76.87;40.60;;;1.60;99.90;;;;;;5005311;28;20193;-62
2022/12/04 03:44:52;;;;;;;81.80;42.47;;;1.70;99.90;;;;;;5006514;28;20206;-62
2022/12/04 03:47:44;;;;;;;82.87;42.80;;;1.70;99.90;;;;;;5006480;28;20203;-63
2022/12/04 03:50:24;;;;;;;79.30;40.97;;;1.80;99.90;;;;;;5005579;28;20218;-63
2022/12/04 03:53:01;;;;;;;83.73;43.27;;;1.70;99.90;;;;;;5006768;28;20258;-62
2022/12/04 03:55:54;;;;;;;79.27;44.67;;;1.70;99.90;;;;;;5000133;28;20225;-63
2022/12/04 03:58:24;;;;;;;75.80;40.40;;;1.70;99.90;;;;;;5006282;28;20685;-62
2022/12/04 04:00:51;;;;;;;81.10;41.63;;;1.70;99.90;;;;;;5006201;28;20197;-62
2022/12/04 04:03:24;;;;;;;77.47;41.37;;;1.70;99.90;;;;;;5006010;28;20887;-62
2022/12/04 04:05:54;;;;;;;81.73;42.60;;;1.70;99.90;;;;;;5006011;28;20203;-62
2022/12/04 04:08:26;;;;;;;69.27;39.07;;;1.70;99.90;;;;;;5009096;28;20206;-62
2022/12/04 04:11:17;;;;;;;83.37;40.50;;;1.70;99.90;;;;;;5003407;28;20210;-62
2022/12/04 04:25:19;;;;;;;84.53;41.80;;;1.80;99.90;;;;;;4994456;28;20294;-64
2022/12/04 04:27:57;;;;;;;78.57;40.37;;;1.80;99.90;;;;;;5005654;28;20278;-61
2022/12/04 04:30:23;;;;;;;82.07;42.00;;;1.80;99.90;;;;;;5001716;28;20206;-61
2022/12/04 04:33:00;;;;;;;75.73;39.80;;;1.80;99.90;;;;;;5006343;28;20203;-61
2022/12/04 04:35:45;;;;;;;76.70;39.20;;;1.80;99.90;;;;;;5006511;28;20193;-61
2022/12/04 04:38:24;;;;;;;77.30;40.47;;;1.80;99.90;;;;;;5007399;28;20218;-61
2022/12/04 04:40:56;;;;;;;73.20;39.23;;;1.70;99.90;;;;;;5002258;28;20232;-61
2022/12/04 04:43:50;;;;;;;75.67;41.40;;;1.70;99.90;;;;;;5006223;28;20195;-61
2022/12/04 04:46:27;;;;;;;73.10;40.53;;;1.70;99.90;;;;;;5001156;28;20285;-61
2022/12/04 04:48:57;;;;;;;76.10;39.03;;;1.80;99.90;;;;;;5006179;28;20915;-61
2022/12/04 04:51:23;;;;;;;81.80;40.97;;;1.80;99.90;;;;;;5005813;28;20194;-61
2022/12/04 04:53:52;;;;;;;77.97;42.63;;;1.80;99.90;;;;;;5006019;28;20210;-61
2022/12/04 04:56:18;;;;;;;73.43;39.27;;;1.90;99.90;;;;;;5006003;28;20641;-64
2022/12/04 04:58:44;;;;;;;75.00;40.93;;;1.90;99.90;;;;;;5004044;28;20283;-62
2022/12/04 05:01:18;;;;;;;76.73;39.87;;;1.80;99.90;;;;;;5004760;28;20241;-62
2022/12/04 05:03:44;;;;;;;82.37;41.93;;;1.90;99.90;;;;;;5005518;28;20243;-66
2022/12/04 05:06:09;;;;;;;79.27;44.77;;;1.90;99.90;;;;;;5005106;28;20230;-65
2022/12/04 05:08:35;;;;;;;81.33;44.13;;;1.80;99.90;;;;;;5006515;28;20200;-62
2022/12/04 05:11:01;;;;;;;78.83;41.90;;;1.90;99.90;;;;;;5012814;28;20238;-65
2022/12/04 05:13:28;;;;;;;75.70;42.17;;;1.90;99.90;;;;;;5006278;28;20548;-64
2022/12/04 05:16:05;;;;;;;77.70;42.27;;;1.90;99.90;;;;;;5010448;28;20649;-64
2022/12/04 05:18:32;;;;;;;66.73;40.17;;;1.90;99.90;;;;;;5007606;28;20225;-65
2022/12/04 05:20:57;;;;;;;76.80;41.37;;;1.90;99.90;;;;;;5010175;28;20202;-67
2022/12/04 05:23:23;;;;;;;68.90;37.37;;;1.90;99.90;;;;;;5009331;28;20256;-64
2022/12/04 05:25:49;;;;;;;71.40;41.03;;;1.90;99.90;;;;;;5008489;28;20248;-62
2022/12/04 05:28:15;;;;;;;73.80;41.10;;;1.90;99.90;;;;;;5003285;28;20204;-62
2022/12/04 05:30:40;;;;;;;70.03;40.87;;;1.90;99.90;;;;;;5009301;28;20293;-62
2022/12/04 05:33:06;;;;;;;75.00;40.00;;;1.90;99.90;;;;;;5009460;28;20210;-61
2022/12/04 05:35:31;;;;;;;75.60;41.30;;;1.90;99.90;;;;;;5009214;28;20198;-61
2022/12/04 05:37:57;;;;;;;74.13;39.47;;;1.90;99.90;;;;;;5011064;28;20207;-61
2022/12/04 05:40:22;;;;;;;73.23;39.53;;;1.90;99.90;;;;;;5013708;28;20705;-61
2022/12/04 05:42:48;;;;;;;73.00;38.60;;;1.90;99.90;;;;;;5015186;28;20208;-62
2022/12/04 05:45:13;;;;;;;78.30;40.43;;;1.90;99.90;;;;;;5007277;28;20256;-63
2022/12/04 05:47:43;;;;;;;70.70;39.63;;;1.80;99.90;;;;;;5009137;28;20205;-63
2022/12/04 05:50:11;;;;;;;73.37;39.60;;;1.90;99.90;;;;;;5008585;28;20301;-62
2022/12/04 05:52:37;;;;;;;66.97;38.80;;;1.80;99.90;;;;;;5011802;28;20305;-62
2022/12/04 05:55:03;;;;;;;74.60;39.47;;;1.90;99.90;;;;;;5014434;28;20299;-67
2022/12/04 05:57:29;;;;;;;73.93;40.20;;;1.80;99.90;;;;;;5021464;28;20234;-62
2022/12/04 05:59:54;;;;;;;70.77;37.97;;;1.80;99.90;;;;;;5008709;28;20682;-61
2022/12/04 06:02:20;;;;;;;76.57;40.93;;;1.90;99.90;;;;;;5016469;28;20203;-61
2022/12/04 06:04:45;;;;;;;77.60;40.87;;;1.90;99.90;;;;;;5017455;28;20590;-59
2022/12/04 06:07:11;;;;;;;70.47;39.10;;;1.90;99.90;;;;;;5006158;28;20206;-60
2022/12/04 06:09:37;;;;;;;67.83;38.53;;;1.90;99.90;;;;;;5007849;28;20212;-60
2022/12/04 06:12:03;;;;;;;65.97;37.70;;;2.00;99.90;;;;;;5007670;28;20205;-59
2022/12/04 06:14:29;;;;;;;69.60;39.73;;;1.90;99.90;;;;;;5007427;28;20210;-59
2022/12/04 06:16:55;;;;;;;75.87;40.03;;;1.90;99.90;;;;;;5010894;28;20221;-59
2022/12/04 06:19:21;;;;;;;69.57;38.23;;;2.00;99.90;;;;;;5003196;28;20696;-60
2022/12/04 06:21:49;;;;;;;69.37;40.10;;;2.00;99.90;;;;;;5008557;28;20249;-60
2022/12/04 06:24:18;;;;;;;70.60;41.10;;;2.00;99.90;;;;;;5008635;28;20296;-60
2022/12/04 06:26:45;;;;;;;82.33;40.40;;;1.90;99.90;;;;;;5009169;28;20208;-60
2022/12/04 06:29:11;;;;;;;68.07;39.83;;;1.90;99.90;;;;;;5006945;28;21004;-60
2022/12/04 06:31:37;;;;;;;76.03;38.80;;;2.00;99.90;;;;;;5008910;28;20222;-60
2022/12/04 06:34:04;;;;;;;73.17;40.90;;;1.90;99.90;;;;;;5005834;28;20211;-59
2022/12/04 06:36:29;;;;;;;75.57;40.13;;;1.90;99.90;;;;;;5007847;28;20211;-60
2022/12/04 06:38:56;;;;;;;72.47;40.27;;;2.00;99.90;;;;;;5012042;28;20715;-60
2022/12/04 06:41:23;;;;;;;73.97;39.30;;;1.90;99.90;;;;;;5003646;28;20612;-60
2022/12/04 06:43:49;;;;;;;70.47;38.17;;;2.00;99.90;;;;;;5006999;28;20677;-60
2022/12/04 06:46:21;;;;;;;69.20;41.03;;;2.00;99.90;;;;;;5006109;28;20251;-60
2022/12/04 06:48:46;;;;;;;69.47;39.23;;;1.90;99.90;;;;;;5009365;28;20210;-60
2022/12/04 06:51:20;;;;;;;65.77;38.53;;;2.00;99.90;;;;;;5005608;28;20205;-61
2022/12/04 06:53:46;;;;;;;77.53;38.50;;;2.10;99.90;;;;;;5007099;28;20637;-60
2022/12/04 06:56:16;;;;;;;69.90;36.13;;;2.10;99.90;;;;;;5007121;28;20713;-61
2022/12/04 06:58:43;;;;;;;69.27;39.80;;;2.10;99.90;;;;;;5005395;28;20216;-62
2022/12/04 07:01:11;;;;;;;73.40;39.83;;;2.10;99.90;;;;;;5008121;28;20238;-62
2022/12/04 07:03:38;;;;;;;71.53;39.13;;;2.10;99.90;;;;;;5007478;28;20474;-60
2022/12/04 07:06:19;;;;;;;71.57;38.43;;;2.10;99.90;;;;;;5007386;28;20205;-60
2022/12/04 07:08:46;;;;;;;66.33;38.10;;;2.10;99.90;;;;;;5006436;28;20285;-61
2022/12/04 07:11:12;;;;;;;72.47;41.13;;;2.10;99.90;;;;;;5006795;28;20249;-60
2022/12/04 07:13:38;;;;;;;69.67;35.60;;;2.10;99.90;;;;;;5006705;28;20203;-60
2022/12/04 07:16:06;;;;;;;70.50;36.50;;;2.10;99.90;;;;;;5005991;28;20209;-60
2022/12/04 07:18:33;;;;;;;70.03;36.63;;;2.10;99.90;;;;;;5005788;28;20222;-59
2022/12/04 07:20:59;;;;;;;67.57;38.37;;;2.10;99.90;;;;;;5007384;28;20293;-61
2022/12/04 07:23:24;;;;;;;65.60;37.67;;;2.10;99.90;;;;;;5007291;28;20303;-61
2022/12/04 07:25:50;;;;;;;65.53;37.07;;;2.20;99.90;;;;;;5007276;28;20227;-61
2022/12/04 07:28:16;;;;;;;68.00;38.40;;;2.10;99.90;;;;;;5007741;28;20195;-61
2022/12/04 07:30:41;;;;;;;69.97;39.30;;;2.10;99.90;;;;;;5005233;28;20336;-60
2022/12/04 07:33:07;;;;;;;68.83;36.63;;;2.20;99.90;;;;;;5007155;28;20203;-61
2022/12/04 07:35:32;;;;;;;61.57;40.33;;;2.20;99.90;;;;;;5006508;28;20273;-62
2022/12/04 07:37:58;;;;;;;68.20;38.00;;;2.20;99.90;;;;;;5006188;28;20673;-61
2022/12/04 07:40:23;;;;;;;73.77;39.03;;;2.20;99.90;;;;;;5009559;28;20216;-60
2022/12/04 07:42:48;;;;;;;66.60;40.23;;;2.20;99.90;;;;;;5002378;28;20201;-67
2022/12/04 07:45:14;;;;;;;73.70;39.57;;;2.20;99.90;;;;;;5004580;28;20298;-60
2022/12/04 07:47:40;;;;;;;67.00;35.67;;;2.20;99.90;;;;;;5006346;28;20350;-60
2022/12/04 07:50:06;;;;;;;64.80;36.27;;;2.20;99.90;;;;;;5006790;28;20562;-59
2022/12/04 07:52:39;;;;;;;61.03;38.10;;;2.20;99.90;;;;;;5020711;28;20214;-60
2022/12/04 07:55:05;;;;;;;76.43;37.90;;;2.20;99.90;;;;;;5005606;28;20278;-59
2022/12/04 07:57:31;;;;;;;67.93;37.67;;;2.20;99.90;;;;;;5005112;28;20323;-59
2022/12/04 07:59:57;;;;;;;65.47;37.27;;;2.30;99.90;;;;;;5006441;28;20619;-61
2022/12/04 08:02:25;;;;;;;75.30;41.63;;;2.30;99.90;;;;;;5002478;28;20662;-59
2022/12/04 08:04:50;;;;;;;66.83;37.83;;;2.30;99.90;;;;;;5004791;28;20212;-60
2022/12/04 08:07:16;;;;;;;60.77;37.53;;;2.30;99.90;;;;;;5004074;28;20203;-61
2022/12/04 08:09:42;;;;;;;70.90;38.57;;;2.30;99.90;;;;;;5008783;28;20215;-61
2022/12/04 08:12:08;;;;;;;67.17;38.33;;;2.30;99.90;;;;;;5005387;28;20199;-60
2022/12/04 08:14:34;;;;;;;68.40;37.17;;;2.30;99.90;;;;;;5004968;28;20200;-60
2022/12/04 08:16:59;;;;;;;69.67;36.97;;;2.30;99.90;;;;;;5003961;28;20205;-60
2022/12/04 08:19:24;;;;;;;66.63;36.33;;;2.30;99.90;;;;;;5005711;28;20859;-60
2022/12/04 08:21:52;;;;;;;70.17;39.30;;;2.30;99.90;;;;;;5004747;28;20206;-60
2022/12/04 08:24:17;;;;;;;65.30;37.03;;;2.30;99.90;;;;;;5013568;28;20640;-60
2022/12/04 08:26:43;;;;;;;65.90;35.50;;;2.30;99.90;;;;;;5007224;28;20198;-60
2022/12/04 08:29:08;;;;;;;67.47;34.53;;;2.30;99.90;;;;;;5012286;28;20209;-59
2022/12/04 08:31:34;;;;;;;59.07;35.20;;;2.30;99.90;;;;;;4999430;28;20355;-60
2022/12/04 08:34:03;;;;;;;60.50;35.90;;;2.40;99.90;;;;;;5005902;28;20200;-61
2022/12/04 08:36:28;;;;;;;68.03;36.87;;;2.40;99.90;;;;;;5007632;28;21083;-60
2022/12/04 08:38:55;;;;;;;71.10;36.10;;;2.40;99.90;;;;;;5003203;28;20225;-61
2022/12/04 08:41:22;;;;;;;67.33;35.60;;;2.50;99.90;;;;;;5006893;28;20206;-60
2022/12/04 08:43:49;;;;;;;62.13;34.27;;;2.40;99.90;;;;;;5005883;28;20207;-60
2022/12/04 08:46:16;;;;;;;68.43;37.03;;;2.40;99.90;;;;;;5007659;28;20203;-60
2022/12/04 08:48:42;;;;;;;68.07;36.43;;;2.50;99.90;;;;;;5008507;28;20578;-60
2022/12/04 08:51:17;;;;;;;65.97;37.87;;;2.50;99.90;;;;;;5008619;28;20298;-60
2022/12/04 08:53:43;;;;;;;69.70;36.60;;;2.50;99.90;;;;;;5012886;28;20214;-60
2022/12/04 08:56:09;;;;;;;62.43;35.23;;;2.40;99.90;;;;;;5005999;28;20664;-60
2022/12/04 08:58:34;;;;;;;70.37;38.00;;;2.50;99.90;;;;;;5010515;28;20265;-60
2022/12/04 09:01:05;;;;;;;67.27;37.13;;;2.50;99.90;;;;;;5007773;28;20404;-60
2022/12/04 09:03:31;;;;;;;70.97;36.97;;;2.50;99.90;;;;;;5007950;28;20202;-61
2022/12/04 09:06:00;;;;;;;67.90;36.63;;;2.50;99.90;;;;;;5008352;28;20207;-61
2022/12/04 09:08:25;;;;;;;68.77;37.20;;;2.50;99.90;;;;;;5007778;28;20194;-60
2022/12/04 09:10:51;;;;;;;63.00;35.53;;;2.50;99.90;;;;;;5014818;28;20208;-60
2022/12/04 09:13:16;;;;;;;64.37;36.67;;;2.50;99.90;;;;;;5012163;28;20213;-60
2022/12/04 09:15:42;;;;;;;64.73;34.90;;;2.50;99.90;;;;;;5004217;28;20200;-60
2022/12/04 09:18:08;;;;;;;63.83;37.87;;;2.60;99.90;;;;;;5009040;28;20198;-60
2022/12/04 09:20:34;;;;;;;69.60;37.73;;;2.60;99.90;;;;;;5008922;28;20259;-59
2022/12/04 09:23:00;;;;;;;69.57;37.23;;;2.60;99.90;;;;;;5007254;28;20203;-61
2022/12/04 09:25:26;;;;;;;77.57;54.57;;;2.70;99.90;;;;;;5008854;28;20195;-60
2022/12/04 09:27:51;;;;;;;73.33;41.47;;;2.70;99.90;;;;;;5006800;28;20203;-59
2022/12/04 09:30:17;;;;;;;65.53;35.50;;;2.60;99.90;;;;;;5009818;28;20211;-59
2022/12/04 09:32:42;;;;;;;60.77;35.67;;;2.60;99.90;;;;;;5007109;28;20214;-60
2022/12/04 09:35:08;;;;;;;58.17;34.87;;;2.70;99.90;;;;;;5007960;28;20431;-61
2022/12/04 09:37:35;;;;;;;56.07;35.40;;;2.70;99.90;;;;;;5007736;28;20622;-69
2022/12/04 09:40:02;;;;;;;65.37;35.33;;;2.70;99.90;;;;;;5011396;28;20571;-61
2022/12/04 09:42:30;;;;;;;67.57;37.23;;;2.70;99.90;;;;;;5004072;28;20208;-61
2022/12/04 09:45:14;;;;;;;65.13;34.63;;;2.70;99.90;;;;;;5011373;28;21050;-60
2022/12/04 09:47:43;;;;;;;60.07;33.20;;;2.70;99.90;;;;;;5006479;28;20187;-60
2022/12/04 09:50:25;;;;;;;68.30;36.57;;;2.70;99.90;;;;;;5016688;28;20197;-60
2022/12/04 09:52:50;;;;;;;60.57;34.47;;;2.70;99.90;;;;;;5001759;28;20197;-60
2022/12/04 09:55:22;;;;;;;75.00;37.20;;;2.80;99.90;;;;;;5007043;28;20208;-62
2022/12/04 09:57:50;;;;;;;69.27;37.23;;;2.80;99.90;;;;;;5008079;28;20341;-60
2022/12/04 10:00:18;;;;;;;69.23;37.03;;;2.80;99.90;;;;;;5007322;28;20561;-61
2022/12/04 10:02:50;;;;;;;64.87;36.13;;;2.90;99.90;;;;;;5017151;28;20230;-60
2022/12/04 10:05:30;;;;;;;69.00;35.80;;;2.90;99.90;;;;;;5017695;28;20369;-59
2022/12/04 10:08:20;;;;;;;62.53;34.33;;;2.90;99.90;;;;;;5015563;28;20197;-59
2022/12/04 10:11:03;;;;;;;69.00;36.43;;;3.00;99.90;;;;;;5015239;28;20717;-60
2022/12/04 10:13:51;;;;;;;62.10;32.73;;;2.90;99.90;;;;;;5017774;28;21029;-59
2022/12/04 10:16:21;;;;;;;54.23;33.23;;;2.90;99.90;;;;;;5017530;28;20667;-60
2022/12/04 10:18:57;;;;;;;60.17;32.13;;;3.00;99.90;;;;;;5015922;28;20585;-60
2022/12/04 10:21:35;;;;;;;57.70;33.67;;;2.90;99.90;;;;;;5016055;28;20207;-60
2022/12/04 10:24:16;;;;;;;69.80;37.33;;;3.00;99.90;;;;;;5016662;28;20675;-60
2022/12/04 10:26:44;;;;;;;62.50;35.10;;;3.00;99.90;;;;;;5016904;28;20210;-60
2022/12/04 10:29:21;;;;;;;68.47;35.70;;;3.00;99.90;;;;;;5016999;28;20207;-61
2022/12/04 10:31:48;;;;;;;71.33;42.80;;;3.00;99.90;;;;;;5016862;28;20221;-61
2022/12/04 10:34:20;;;;;;;69.80;38.13;;;3.00;99.90;;;;;;5016211;28;20583;-62
2022/12/04 10:36:52;;;;;;;75.20;37.30;;;3.00;99.90;;;;;;5016736;28;20202;-62
2022/12/04 10:39:35;;;;;;;68.43;37.40;;;3.10;99.90;;;;;;5014948;28;20223;-62
2022/12/04 10:42:24;;;;;;;61.53;33.83;;;3.10;99.90;;;;;;5016590;28;20203;-62
2022/12/04 10:44:49;;;;;;;58.17;33.27;;;3.10;99.90;;;;;;5017036;28;20211;-62
2022/12/04 10:47:15;;;;;;;56.43;33.77;;;3.20;99.90;;;;;;5017145;28;20669;-63
2022/12/04 10:49:40;;;;;;;64.07;35.30;;;3.10;99.90;;;;;;5015924;28;20621;-62
2022/12/04 10:52:10;;;;;;;65.17;36.30;;;3.10;99.90;;;;;;5017081;28;20238;-62
2022/12/04 10:54:52;;;;;;;56.27;32.83;;;3.10;99.90;;;;;;5016878;28;21141;-62
2022/12/04 10:57:18;;;;;;;66.93;34.13;;;3.10;99.90;;;;;;5016798;28;20318;-63
2022/12/04 10:59:54;;;;;;;57.70;34.87;;;3.10;99.90;;;;;;5016442;28;20302;-62
2022/12/04 11:02:33;;;;;;;54.23;33.17;;;3.20;99.90;;;;;;5016478;28;20218;-62
2022/12/04 11:05:02;;;;;;;62.27;34.97;;;3.20;99.90;;;;;;5016098;28;20203;-62
2022/12/04 11:07:41;;;;;;;56.53;33.63;;;3.20;99.90;;;;;;5016111;28;20719;-61
2022/12/04 11:10:37;;;;;;;59.27;32.77;;;3.20;99.90;;;;;;5016120;28;20581;-62
2022/12/04 11:13:11;;;;;;;64.17;34.63;;;3.30;99.90;;;;;;5015177;28;20207;-62
2022/12/04 11:15:52;;;;;;;61.87;34.57;;;3.30;99.90;;;;;;5016790;28;20660;-62
2022/12/04 11:18:24;;;;;;;61.07;33.17;;;3.20;99.90;;;;;;5016111;28;20568;-62
2022/12/04 11:20:59;;;;;;;57.77;32.03;;;3.20;99.90;;;;;;5015128;28;20736;-62
2022/12/04 11:23:28;;;;;;;60.53;34.50;;;3.30;99.90;;;;;;5014013;28;20279;-62
2022/12/04 11:25:56;;;;;;;69.00;37.83;;;3.30;99.90;;;;;;5015678;28;20685;-61
2022/12/04 11:28:27;;;;;;;62.27;33.87;;;3.30;99.90;;;;;;5021969;28;20504;-61
2022/12/04 11:30:55;;;;;;;60.17;33.60;;;3.30;99.90;;;;;;5024758;28;20669;-61
2022/12/04 11:33:35;;;;;;;55.77;30.63;;;3.30;99.90;;;;;;5022880;28;20198;-62
2022/12/04 11:36:06;;;;;;;57.40;32.50;;;3.30;99.90;;;;;;5024314;28;20333;-61
2022/12/04 11:38:36;;;;;;;62.80;32.87;;;3.30;99.90;;;;;;5022363;28;20219;-61
2022/12/04 11:41:03;;;;;;;63.43;33.80;;;3.30;99.90;;;;;;5024618;28;20203;-63
2022/12/04 11:43:31;;;;;;;61.67;34.37;;;3.40;99.90;;;;;;5025229;28;20589;-62
2022/12/04 11:46:00;;;;;;;55.97;31.37;;;3.30;99.90;;;;;;5024498;28;20203;-62
2022/12/04 11:48:28;;;;;;;53.07;30.77;;;3.30;99.90;;;;;;5014677;28;20743;-63
2022/12/04 11:51:28;;;;;;;57.93;32.03;;;3.40;99.90;;;;;;5021988;28;20203;-63
2022/12/04 11:54:04;;;;;;;62.33;33.13;;;3.40;99.90;;;;;;5022296;28;20202;-64
2022/12/04 11:56:42;;;;;;;48.90;29.87;;;3.40;99.90;;;;;;5021719;28;20216;-64
2022/12/04 11:59:42;;;;;;;58.47;33.03;;;3.40;99.90;;;;;;5011922;28;20632;-63
2022/12/04 12:02:38;;;;;;;56.47;33.70;;;3.40;99.90;;;;;;5015635;28;20340;-73
2022/12/04 12:05:41;;;;;;;61.33;34.23;;;3.40;99.90;;;;;;5017795;28;20222;-70
2022/12/04 12:08:44;;;;;;;57.90;30.00;;;3.40;99.90;;;;;;5020352;28;20206;-65
2022/12/04 12:11:27;;;;;;;63.43;33.23;;;3.40;99.90;;;;;;5013783;28;20295;-63
2022/12/04 12:14:21;;;;;;;54.27;30.40;;;3.40;99.90;;;;;;5015883;28;20202;-62
2022/12/04 12:17:07;;;;;;;54.07;31.63;;;3.40;99.90;;;;;;5015203;28;20195;-63
2022/12/04 12:20:14;;;;;;;58.03;33.37;;;3.40;99.90;;;;;;5015900;28;20214;-64
2022/12/04 12:22:42;;;;;;;62.53;32.73;;;3.40;99.90;;;;;;5003891;28;20199;-60
2022/12/04 12:25:29;;;;;;;54.97;32.10;;;3.40;99.90;;;;;;5015375;28;20194;-59
2022/12/04 12:28:27;;;;;;;56.00;33.37;;;3.40;99.90;;;;;;5015526;28;20249;-60
2022/12/04 12:31:38;;;;;;;54.10;33.03;;;3.50;99.90;;;;;;5013823;28;20547;-58
2022/12/04 12:34:09;;;;;;;58.97;32.13;;;3.50;99.90;;;;;;5015593;28;20210;-58
2022/12/04 12:36:44;;;;;;;60.90;33.87;;;3.50;99.90;;;;;;5015246;28;20244;-58
2022/12/04 12:39:21;;;;;;;54.80;30.50;;;3.50;99.90;;;;;;5006679;28;20265;-58
2022/12/04 12:41:57;;;;;;;63.87;33.10;;;3.50;99.90;;;;;;5015523;28;20206;-60
2022/12/04 12:44:39;;;;;;;57.60;33.90;;;3.50;99.90;;;;;;5015041;28;20345;-60
2022/12/04 12:47:18;;;;;;;59.23;33.57;;;3.40;99.90;;;;;;5014765;28;20206;-58
2022/12/04 12:49:57;;;;;;;54.47;32.57;;;3.40;99.90;;;;;;5015210;28;20218;-58
2022/12/04 12:52:42;;;;;;;59.63;33.10;;;3.40;99.90;;;;;;5013593;28;20217;-59
2022/12/04 12:55:15;;;;;;;61.70;34.40;;;3.40;99.90;;;;;;5014928;28;20226;-58
2022/12/04 12:57:46;;;;;;;61.23;34.73;;;3.40;99.90;;;;;;5015705;28;20229;-58
2022/12/04 13:00:18;;;;;;;65.00;33.00;;;3.40;99.90;;;;;;5015528;28;20213;-61
2022/12/04 13:02:57;;;;;;;60.57;31.97;;;3.30;99.90;;;;;;5013268;28;20278;-59
2022/12/04 13:05:37;;;;;;;59.40;33.53;;;3.30;99.90;;;;;;5014586;28;20278;-67
2022/12/04 13:08:19;;;;;;;63.10;34.67;;;3.30;99.90;;;;;;5014978;28;20737;-62